Craig G — WDB5332 — position and weather

sailwx.info

Track history (hours):
 
Tides and Currents Weather Stations Pressure Air Temp Water Temp Dewpoint Dewpoint Depression Visibility Wind Speed Wind Dir Waves Ship Positions

Craig G

More information available from US FCC via Universal Licensing System and Coast Guard Vessel Documentation Center.

Last reported at 2014-Jul-29 04:33 UTC. Time now 2014-Jul-29 04:38 UTC.
Position N 33°01' W 118°33'.

Length 28 m; draft 2 m.

Type: Other ship. MMSI: 366908460.

Date/timePositionNaut miles runAvg speedWind from/ knotsBaromVisibWave heightAir tempDewpointWater temp
2014-Jul-29 04:33N 33°01' W 118°33'0 0.0
2014-Jul-29 03:33N 33°01' W 118°33'0 0.0
2014-Jul-29 02:34N 33°01' W 118°33'0 0.0
2014-Jul-29 01:34N 33°01' W 118°33'0 0.0
2014-Jul-29 00:34N 33°01' W 118°33'0 0.0
2014-Jul-28 23:33N 33°01' W 118°33'0 0.0
2014-Jul-28 22:33N 33°01' W 118°33'0 0.0
2014-Jul-28 21:33N 33°01' W 118°33'0 0.0
2014-Jul-28 20:33N 33°01' W 118°33'4 3.5
2014-Jul-28 19:33N 32°59' W 118°29'2 2.2
2014-Jul-28 18:33N 33°01' W 118°27'8 7.7
2014-Jul-28 17:34N 32°57' W 118°19'1717.0
2014-Jul-28 16:33N 32°52' W 117°60'1717.0
2014-Jul-28 15:33N 32°46' W 117°41'1717.0
2014-Jul-28 14:34N 32°41' W 117°21'6 0.5
2014-Jul-28 01:33N 32°41' W 117°14'1111.3
2014-Jul-28 00:33N 32°42' W 117°28'1616.1
2014-Jul-27 23:33N 32°48' W 117°45'1615.9
2014-Jul-27 22:33N 32°53' W 118°03'1615.9
2014-Jul-27 21:33N 32°59' W 118°21'4 4.3
2014-Jul-27 20:33N 32°60' W 118°26'6 6.1
2014-Jul-27 19:34N 33°01' W 118°33'0 0.0
2014-Jul-27 18:34N 33°01' W 118°33'0 0.0
2014-Jul-27 17:33N 33°01' W 118°33'0 0.0
2014-Jul-27 16:33N 33°01' W 118°33'0 0.0
2014-Jul-27 15:33N 33°01' W 118°33'0 0.0
2014-Jul-27 14:33N 33°01' W 118°33'0 0.0
2014-Jul-27 13:34N 33°01' W 118°33'0 0.0
2014-Jul-27 12:33N 33°01' W 118°33'0 0.0
2014-Jul-27 11:34N 33°01' W 118°33'0 0.0
2014-Jul-27 10:34N 33°01' W 118°33'0 0.0
2014-Jul-27 09:33N 33°01' W 118°33'0 0.0
2014-Jul-27 08:33N 33°01' W 118°33'0 0.0
2014-Jul-27 07:34N 33°01' W 118°33'0 0.0
2014-Jul-27 06:34N 33°01' W 118°33'0 0.0
2014-Jul-27 05:33N 33°01' W 118°33'0 0.0
2014-Jul-27 04:34N 33°01' W 118°33'0 0.0
2014-Jul-27 03:33N 33°01' W 118°33'0 0.0
2014-Jul-27 02:34N 33°01' W 118°33'0 0.0
2014-Jul-27 01:33N 33°01' W 118°33'0 0.0
2014-Jul-27 00:34N 33°01' W 118°33'0 0.0
2014-Jul-26 23:33N 33°01' W 118°33'0 0.2
2014-Jul-26 22:34N 33°00' W 118°33'1 1.4
2014-Jul-26 21:34N 32°59' W 118°32'4 3.7
2014-Jul-26 20:33N 32°56' W 118°30'3 2.8
2014-Jul-26 19:34N 32°54' W 118°27'4 4.3
2014-Jul-26 18:34N 32°58' W 118°31'1 1.3
2014-Jul-26 17:34N 32°59' W 118°31'2 2.3
2014-Jul-26 16:33N 33°00' W 118°33'0 0.0
2014-Jul-26 15:33N 33°00' W 118°33'0 0.0
2014-Jul-26 14:34N 33°00' W 118°33'0 0.0
2014-Jul-26 13:34N 33°00' W 118°33'0 0.0
2014-Jul-26 12:34N 33°00' W 118°33'0 0.0
2014-Jul-26 11:33N 33°00' W 118°33'0 0.0
2014-Jul-26 10:33N 33°00' W 118°33'0 0.0
2014-Jul-26 09:33N 33°00' W 118°33'0 0.0
2014-Jul-26 08:33N 33°00' W 118°33'0 0.0
2014-Jul-26 07:33N 33°00' W 118°33'0 0.0
2014-Jul-26 06:33N 33°00' W 118°33'0 0.0
2014-Jul-26 05:33N 33°00' W 118°33'0 0.0
2014-Jul-26 04:33N 33°00' W 118°33'0 0.0
2014-Jul-26 03:33N 33°00' W 118°33'0 0.0
2014-Jul-26 02:31N 33°00' W 118°33'0 0.0
2014-Jul-26 01:32N 33°00' W 118°33'0 0.0
2014-Jul-26 00:33N 33°00' W 118°33'0 0.3
2014-Jul-25 23:34N 33°00' W 118°33'0 0.1
2014-Jul-25 22:33N 33°01' W 118°33'0 0.0
2014-Jul-25 21:33N 33°01' W 118°33'0 0.1
2014-Jul-25 20:33N 33°01' W 118°33'0 0.0
2014-Jul-25 19:33N 33°01' W 118°33'0 0.0
2014-Jul-25 18:33N 33°01' W 118°33'0 0.0
2014-Jul-25 17:34N 33°01' W 118°33'4 4.1
2014-Jul-25 16:34N 33°00' W 118°28'2 2.1
2014-Jul-25 15:32N 32°59' W 118°26'1412.8
2014-Jul-25 14:29N 32°55' W 118°11'1415.4
2014-Jul-25 13:33N 32°50' W 117°55'1414.4
2014-Jul-25 12:33N 32°46' W 117°39'1414.0
2014-Jul-25 11:33N 32°42' W 117°23'7 7.3
2014-Jul-25 10:34N 32°41' W 117°14'1 0.1
2014-Jul-24 19:33N 32°43' W 117°14'1 0.3
2014-Jul-24 17:17N 32°43' W 117°14'0 0.0
2014-Jul-24 16:29N 32°43' W 117°14'0 0.0
2014-Jul-24 15:23N 32°43' W 117°14'4 0.3
2014-Jul-24 01:33N 32°39' W 117°14'1717.0
2014-Jul-24 00:34N 32°44' W 117°33'1716.9
2014-Jul-23 23:33N 32°48' W 117°53'1716.9
2014-Jul-23 22:34N 32°54' W 118°11'1413.8
2014-Jul-23 21:33N 32°59' W 118°27'2 1.8
2014-Jul-23 20:33N 32°59' W 118°25'1 0.9
2014-Jul-23 19:33N 32°59' W 118°26'6 6.4
2014-Jul-23 18:33N 33°00' W 118°33'0 0.1
2014-Jul-23 17:34N 33°00' W 118°33'0 0.0
2014-Jul-23 16:32N 33°00' W 118°33'0 0.0
2014-Jul-23 15:33N 33°00' W 118°33'0 0.0
2014-Jul-23 14:34N 33°00' W 118°33'0 0.0
2014-Jul-23 13:33N 33°00' W 118°33'0 0.0
2014-Jul-23 12:34N 33°00' W 118°33'0 0.0
2014-Jul-23 11:33N 33°00' W 118°33'0 0.0
2014-Jul-23 10:34N 33°00' W 118°33'0 0.0
2014-Jul-23 09:34N 33°00' W 118°33'0 0.0
2014-Jul-23 08:34N 33°00' W 118°33'0 0.0
2014-Jul-23 07:34N 33°00' W 118°33'0 0.0
2014-Jul-23 06:33N 33°00' W 118°33'0 0.0
2014-Jul-23 05:34N 33°00' W 118°33'0 0.0
2014-Jul-23 04:34N 33°00' W 118°33'0 0.0
2014-Jul-23 03:34N 33°00' W 118°33'0 0.0
2014-Jul-23 02:33N 33°00' W 118°33'0 0.0
2014-Jul-23 01:33N 33°00' W 118°33'0 0.0
2014-Jul-23 00:34N 33°00' W 118°33'0 0.0
2014-Jul-22 23:33N 33°00' W 118°33'3 2.5
2014-Jul-22 22:33N 32°60' W 118°30'3 3.5
2014-Jul-22 21:33N 33°00' W 118°26'3 2.8
2014-Jul-22 20:33N 32°60' W 118°30'3 3.2
2014-Jul-22 19:33N 33°00' W 118°33'0 0.0
2014-Jul-22 18:15N 33°00' W 118°33'0 0.0
2014-Jul-22 17:31N 33°00' W 118°33'0 0.0
2014-Jul-22 16:33N 33°00' W 118°33'0 0.0
2014-Jul-22 15:26N 33°00' W 118°33'0 0.0
2014-Jul-22 14:24N 33°00' W 118°33'0 0.0
2014-Jul-22 13:33N 33°00' W 118°33'0 0.0
2014-Jul-22 12:32N 33°00' W 118°33'0 0.0
2014-Jul-22 10:33N 33°00' W 118°33'0 0.0
2014-Jul-22 09:32N 33°00' W 118°33'0 0.0
2014-Jul-22 08:30N 33°00' W 118°33'0 0.0
2014-Jul-22 07:32N 33°00' W 118°33'0 0.0
2014-Jul-22 06:28N 33°00' W 118°33'0 0.0
2014-Jul-22 05:30N 33°00' W 118°33'0 0.0
2014-Jul-22 04:33N 33°00' W 118°33'0 0.0
2014-Jul-22 03:32N 33°00' W 118°33'0 0.0
2014-Jul-22 02:33N 33°00' W 118°33'0 0.0
2014-Jul-22 01:30N 33°00' W 118°33'0 0.0
2014-Jul-22 00:33N 33°00' W 118°33'0 0.0
2014-Jul-21 23:32N 33°00' W 118°33'0 0.0
2014-Jul-21 22:33N 33°00' W 118°33'0 0.0
2014-Jul-21 21:12N 33°00' W 118°33'34 7.2
2014-Jul-21 16:32N 32°51' W 117°55'1616.4
2014-Jul-21 15:33N 32°45' W 117°37'1616.0
2014-Jul-21 14:33N 32°40' W 117°19'  
Track history (hours):
 
Tides and Currents Weather Stations Pressure Air Temp Water Temp Dewpoint Dewpoint Depression Visibility Wind Speed Wind Dir Waves Ship Positions

Craig G

More information available from US FCC via Universal Licensing System and Coast Guard Vessel Documentation Center.

Last reported at 2014-Jul-29 04:33 UTC. Time now 2014-Jul-29 04:38 UTC.
Position N 33°01' W 118°33'.

Length 28 m; draft 2 m.

Type: Other ship. MMSI: 366908460.

Date/timePositionNaut miles runAvg speedWind from/ knotsBaromVisibWave heightAir tempDewpointWater temp
2014-Jul-29 04:33N 33°01' W 118°33'0 0.0
2014-Jul-29 03:33N 33°01' W 118°33'0 0.0
2014-Jul-29 02:34N 33°01' W 118°33'0 0.0
2014-Jul-29 01:34N 33°01' W 118°33'0 0.0
2014-Jul-29 00:34N 33°01' W 118°33'0 0.0
2014-Jul-28 23:33N 33°01' W 118°33'0 0.0
2014-Jul-28 22:33N 33°01' W 118°33'0 0.0
2014-Jul-28 21:33N 33°01' W 118°33'0 0.0
2014-Jul-28 20:33N 33°01' W 118°33'4 3.5
2014-Jul-28 19:33N 32°59' W 118°29'2 2.2
2014-Jul-28 18:33N 33°01' W 118°27'8 7.7
2014-Jul-28 17:34N 32°57' W 118°19'1717.0
2014-Jul-28 16:33N 32°52' W 117°60'1717.0
2014-Jul-28 15:33N 32°46' W 117°41'1717.0
2014-Jul-28 14:34N 32°41' W 117°21'6 0.5
2014-Jul-28 01:33N 32°41' W 117°14'1111.3
2014-Jul-28 00:33N 32°42' W 117°28'1616.1
2014-Jul-27 23:33N 32°48' W 117°45'1615.9
2014-Jul-27 22:33N 32°53' W 118°03'1615.9
2014-Jul-27 21:33N 32°59' W 118°21'4 4.3
2014-Jul-27 20:33N 32°60' W 118°26'6 6.1
2014-Jul-27 19:34N 33°01' W 118°33'0 0.0
2014-Jul-27 18:34N 33°01' W 118°33'0 0.0
2014-Jul-27 17:33N 33°01' W 118°33'0 0.0
2014-Jul-27 16:33N 33°01' W 118°33'0 0.0
2014-Jul-27 15:33N 33°01' W 118°33'0 0.0
2014-Jul-27 14:33N 33°01' W 118°33'0 0.0
2014-Jul-27 13:34N 33°01' W 118°33'0 0.0
2014-Jul-27 12:33N 33°01' W 118°33'0 0.0
2014-Jul-27 11:34N 33°01' W 118°33'0 0.0
2014-Jul-27 10:34N 33°01' W 118°33'0 0.0
2014-Jul-27 09:33N 33°01' W 118°33'0 0.0
2014-Jul-27 08:33N 33°01' W 118°33'0 0.0
2014-Jul-27 07:34N 33°01' W 118°33'0 0.0
2014-Jul-27 06:34N 33°01' W 118°33'0 0.0
2014-Jul-27 05:33N 33°01' W 118°33'0 0.0
2014-Jul-27 04:34N 33°01' W 118°33'0 0.0
2014-Jul-27 03:33N 33°01' W 118°33'0 0.0
2014-Jul-27 02:34N 33°01' W 118°33'0 0.0
2014-Jul-27 01:33N 33°01' W 118°33'0 0.0
2014-Jul-27 00:34N 33°01' W 118°33'0 0.0
2014-Jul-26 23:33N 33°01' W 118°33'0 0.2
2014-Jul-26 22:34N 33°00' W 118°33'1 1.4
2014-Jul-26 21:34N 32°59' W 118°32'4 3.7
2014-Jul-26 20:33N 32°56' W 118°30'3 2.8
2014-Jul-26 19:34N 32°54' W 118°27'4 4.3
2014-Jul-26 18:34N 32°58' W 118°31'1 1.3
2014-Jul-26 17:34N 32°59' W 118°31'2 2.3
2014-Jul-26 16:33N 33°00' W 118°33'0 0.0
2014-Jul-26 15:33N 33°00' W 118°33'0 0.0
2014-Jul-26 14:34N 33°00' W 118°33'0 0.0
2014-Jul-26 13:34N 33°00' W 118°33'0 0.0
2014-Jul-26 12:34N 33°00' W 118°33'0 0.0
2014-Jul-26 11:33N 33°00' W 118°33'0 0.0
2014-Jul-26 10:33N 33°00' W 118°33'0 0.0
2014-Jul-26 09:33N 33°00' W 118°33'0 0.0
2014-Jul-26 08:33N 33°00' W 118°33'0 0.0
2014-Jul-26 07:33N 33°00' W 118°33'0 0.0
2014-Jul-26 06:33N 33°00' W 118°33'0 0.0
2014-Jul-26 05:33N 33°00' W 118°33'0 0.0
2014-Jul-26 04:33N 33°00' W 118°33'0 0.0
2014-Jul-26 03:33N 33°00' W 118°33'0 0.0
2014-Jul-26 02:31N 33°00' W 118°33'0 0.0
2014-Jul-26 01:32N 33°00' W 118°33'0 0.0
2014-Jul-26 00:33N 33°00' W 118°33'0 0.3
2014-Jul-25 23:34N 33°00' W 118°33'0 0.1
2014-Jul-25 22:33N 33°01' W 118°33'0 0.0
2014-Jul-25 21:33N 33°01' W 118°33'0 0.1
2014-Jul-25 20:33N 33°01' W 118°33'0 0.0
2014-Jul-25 19:33N 33°01' W 118°33'0 0.0
2014-Jul-25 18:33N 33°01' W 118°33'0 0.0
2014-Jul-25 17:34N 33°01' W 118°33'4 4.1
2014-Jul-25 16:34N 33°00' W 118°28'2 2.1
2014-Jul-25 15:32N 32°59' W 118°26'1412.8
2014-Jul-25 14:29N 32°55' W 118°11'1415.4
2014-Jul-25 13:33N 32°50' W 117°55'1414.4
2014-Jul-25 12:33N 32°46' W 117°39'1414.0
2014-Jul-25 11:33N 32°42' W 117°23'7 7.3
2014-Jul-25 10:34N 32°41' W 117°14'1 0.1
2014-Jul-24 19:33N 32°43' W 117°14'1 0.3
2014-Jul-24 17:17N 32°43' W 117°14'0 0.0
2014-Jul-24 16:29N 32°43' W 117°14'0 0.0
2014-Jul-24 15:23N 32°43' W 117°14'4 0.3
2014-Jul-24 01:33N 32°39' W 117°14'1717.0
2014-Jul-24 00:34N 32°44' W 117°33'1716.9
2014-Jul-23 23:33N 32°48' W 117°53'1716.9
2014-Jul-23 22:34N 32°54' W 118°11'1413.8
2014-Jul-23 21:33N 32°59' W 118°27'2 1.8
2014-Jul-23 20:33N 32°59' W 118°25'1 0.9
2014-Jul-23 19:33N 32°59' W 118°26'6 6.4
2014-Jul-23 18:33N 33°00' W 118°33'0 0.1
2014-Jul-23 17:34N 33°00' W 118°33'0 0.0
2014-Jul-23 16:32N 33°00' W 118°33'0 0.0
2014-Jul-23 15:33N 33°00' W 118°33'0 0.0
2014-Jul-23 14:34N 33°00' W 118°33'0 0.0
2014-Jul-23 13:33N 33°00' W 118°33'0 0.0
2014-Jul-23 12:34N 33°00' W 118°33'0 0.0
2014-Jul-23 11:33N 33°00' W 118°33'0 0.0
2014-Jul-23 10:34N 33°00' W 118°33'0 0.0
2014-Jul-23 09:34N 33°00' W 118°33'0 0.0
2014-Jul-23 08:34N 33°00' W 118°33'0 0.0
2014-Jul-23 07:34N 33°00' W 118°33'0 0.0
2014-Jul-23 06:33N 33°00' W 118°33'0 0.0
2014-Jul-23 05:34N 33°00' W 118°33'0 0.0
2014-Jul-23 04:34N 33°00' W 118°33'0 0.0
2014-Jul-23 03:34N 33°00' W 118°33'0 0.0
2014-Jul-23 02:33N 33°00' W 118°33'0 0.0
2014-Jul-23 01:33N 33°00' W 118°33'0 0.0
2014-Jul-23 00:34N 33°00' W 118°33'0 0.0
2014-Jul-22 23:33N 33°00' W 118°33'3 2.5
2014-Jul-22 22:33N 32°60' W 118°30'3 3.5
2014-Jul-22 21:33N 33°00' W 118°26'3 2.8
2014-Jul-22 20:33N 32°60' W 118°30'3 3.2
2014-Jul-22 19:33N 33°00' W 118°33'0 0.0
2014-Jul-22 18:15N 33°00' W 118°33'0 0.0
2014-Jul-22 17:31N 33°00' W 118°33'0 0.0
2014-Jul-22 16:33N 33°00' W 118°33'0 0.0
2014-Jul-22 15:26N 33°00' W 118°33'0 0.0
2014-Jul-22 14:24N 33°00' W 118°33'0 0.0
2014-Jul-22 13:33N 33°00' W 118°33'0 0.0
2014-Jul-22 12:32N 33°00' W 118°33'0 0.0
2014-Jul-22 10:33N 33°00' W 118°33'0 0.0
2014-Jul-22 09:32N 33°00' W 118°33'0 0.0
2014-Jul-22 08:30N 33°00' W 118°33'0 0.0
2014-Jul-22 07:32N 33°00' W 118°33'0 0.0
2014-Jul-22 06:28N 33°00' W 118°33'0 0.0
2014-Jul-22 05:30N 33°00' W 118°33'0 0.0
2014-Jul-22 04:33N 33°00' W 118°33'0 0.0
2014-Jul-22 03:32N 33°00' W 118°33'0 0.0
2014-Jul-22 02:33N 33°00' W 118°33'0 0.0
2014-Jul-22 01:30N 33°00' W 118°33'0 0.0
2014-Jul-22 00:33N 33°00' W 118°33'0 0.0
2014-Jul-21 23:32N 33°00' W 118°33'0 0.0
2014-Jul-21 22:33N 33°00' W 118°33'0 0.0
2014-Jul-21 21:12N 33°00' W 118°33'34 7.2
2014-Jul-21 16:32N 32°51' W 117°55'1616.4
2014-Jul-21 15:33N 32°45' W 117°37'1616.0
2014-Jul-21 14:33N 32°40' W 117°19'  

Dump ship's entire track history